Time;durP1;ratioP1;P1;durP2;ratioP2;P2;SDS_P1;SDS_P2;PMS_P1;PMS_P2;Temp;Humidity;BMP_temperature;BMP_pressure;BME280_temperature;BME280_humidity;BME280_pressure;Samples;Min_cycle;Max_cycle;Signal;HPM_P1;HPM_P2
2021/03/16 00:00:58;;;;;;;10.48;6.30;;;3.00;99.90;;;;;;5033508;28;20057;-70
2021/03/16 00:03:24;;;;;;;11.65;6.75;;;3.00;99.90;;;;;;5032450;28;20076;-70
2021/03/16 00:05:49;;;;;;;12.77;8.63;;;3.00;99.90;;;;;;5033625;28;20568;-70
2021/03/16 00:08:15;;;;;;;34.47;32.05;;;3.00;99.90;;;;;;5033560;28;20541;-70
2021/03/16 00:10:41;;;;;;;45.85;43.15;;;3.10;99.90;;;;;;5033399;28;20521;-70
2021/03/16 00:13:06;;;;;;;12.98;11.75;;;3.30;99.90;;;;;;5033474;28;20041;-70
2021/03/16 00:15:32;;;;;;;14.93;10.05;;;3.00;99.90;;;;;;5033455;28;20164;-70
2021/03/16 00:17:57;;;;;;;12.15;7.10;;;3.00;99.90;;;;;;5023724;28;20100;-70
2021/03/16 00:20:23;;;;;;;10.90;7.55;;;2.90;99.90;;;;;;5013408;28;20041;-70
2021/03/16 00:22:48;;;;;;;14.57;7.57;;;2.90;99.90;;;;;;5003799;28;20037;-70
2021/03/16 00:25:15;;;;;;;10.95;7.57;;;2.80;99.90;;;;;;5009920;28;20097;-71
2021/03/16 00:27:41;;;;;;;9.73;7.13;;;2.80;99.90;;;;;;5011327;28;20018;-70
2021/03/16 00:30:07;;;;;;;12.93;10.82;;;2.90;99.90;;;;;;5013039;28;20057;-71
2021/03/16 00:32:33;;;;;;;13.27;8.63;;;2.70;99.90;;;;;;5017515;28;20052;-70
2021/03/16 00:34:58;;;;;;;12.65;8.18;;;2.80;99.90;;;;;;5013274;28;20052;-70
2021/03/16 00:37:24;;;;;;;10.80;8.35;;;2.80;99.90;;;;;;5012018;28;20049;-70
2021/03/16 00:39:51;;;;;;;12.77;7.55;;;2.80;99.90;;;;;;5013111;28;20480;-70
2021/03/16 00:42:18;;;;;;;46.25;43.63;;;2.80;99.90;;;;;;5011651;28;20469;-70
2021/03/16 00:44:43;;;;;;;25.83;23.67;;;2.70;99.90;;;;;;5011783;28;20021;-70
2021/03/16 00:47:09;;;;;;;11.07;10.10;;;2.70;99.90;;;;;;5013197;28;20028;-70
2021/03/16 00:49:34;;;;;;;38.72;36.08;;;2.70;99.90;;;;;;5012943;28;20048;-70
2021/03/16 00:52:01;;;;;;;50.35;46.88;;;2.70;99.90;;;;;;5011845;28;20451;-70
2021/03/16 00:54:27;;;;;;;36.38;34.30;;;2.70;99.90;;;;;;5003321;28;20363;-70
2021/03/16 00:56:52;;;;;;;65.40;61.60;;;2.70;99.90;;;;;;5031475;28;20026;-70
2021/03/16 00:59:18;;;;;;;26.23;24.23;;;2.70;99.90;;;;;;5032567;28;20045;-71
2021/03/16 01:01:43;;;;;;;31.00;28.70;;;2.70;99.90;;;;;;5032343;28;20017;-70
2021/03/16 01:04:09;;;;;;;9.65;7.38;;;2.70;99.90;;;;;;5032414;28;20025;-70
2021/03/16 01:06:35;;;;;;;11.32;6.65;;;2.80;99.90;;;;;;5031363;28;20483;-70
2021/03/16 01:09:00;;;;;;;13.88;12.48;;;2.80;99.90;;;;;;5030974;28;20060;-70
2021/03/16 01:11:26;;;;;;;22.17;20.25;;;2.80;99.90;;;;;;5030945;28;20021;-71
2021/03/16 01:13:52;;;;;;;9.57;6.97;;;2.80;99.90;;;;;;5032479;28;20033;-70
2021/03/16 01:16:17;;;;;;;18.98;16.70;;;2.80;99.90;;;;;;5032288;28;20428;-71
2021/03/16 01:18:43;;;;;;;55.42;52.47;;;2.80;99.90;;;;;;5032070;28;20039;-71
2021/03/16 01:21:08;;;;;;;26.13;24.40;;;2.90;99.90;;;;;;5032174;28;20021;-70
2021/03/16 01:23:38;;;;;;;55.30;52.15;;;2.80;99.90;;;;;;5032200;28;20537;-70
2021/03/16 01:26:04;;;;;;;28.63;26.30;;;2.80;99.90;;;;;;5021897;28;20049;-71
2021/03/16 01:28:30;;;;;;;25.13;23.23;;;2.80;99.90;;;;;;5012378;28;20022;-70
2021/03/16 01:30:56;;;;;;;61.33;57.75;;;2.80;99.90;;;;;;5013727;28;20032;-70
2021/03/16 01:33:22;;;;;;;37.40;35.08;;;2.80;99.90;;;;;;5011506;28;20110;-70
2021/03/16 01:35:48;;;;;;;13.70;12.50;;;2.80;99.90;;;;;;5003029;28;20106;-71
2021/03/16 01:38:14;;;;;;;53.55;49.92;;;2.90;99.90;;;;;;5012219;28;20029;-71
2021/03/16 01:40:41;;;;;;;17.45;16.20;;;2.90;99.90;;;;;;5000372;28;20022;-71
2021/03/16 01:43:12;;;;;;;32.58;30.23;;;2.90;99.90;;;;;;5009296;28;20038;-71
2021/03/16 01:45:39;;;;;;;44.65;41.90;;;2.90;99.90;;;;;;5010891;28;20068;-70
2021/03/16 01:48:06;;;;;;;24.67;23.00;;;2.90;99.90;;;;;;5012167;28;20049;-71
2021/03/16 01:50:33;;;;;;;23.85;22.25;;;2.90;99.90;;;;;;5012000;28;20450;-71
2021/03/16 01:53:00;;;;;;;12.50;7.20;;;2.90;99.90;;;;;;5011856;28;20498;-71
2021/03/16 01:55:28;;;;;;;10.02;6.72;;;3.00;99.90;;;;;;5012036;28;20096;-70
2021/03/16 01:57:55;;;;;;;10.80;6.22;;;2.90;99.90;;;;;;5011962;28;20033;-70
2021/03/16 02:00:21;;;;;;;8.25;5.03;;;2.90;99.90;;;;;;5011838;28;20603;-70
2021/03/16 02:02:47;;;;;;;11.32;5.40;;;2.90;99.90;;;;;;5011629;28;20476;-70
2021/03/16 02:05:13;;;;;;;11.18;6.65;;;2.90;99.90;;;;;;5012039;28;20029;-70
2021/03/16 02:08:09;;;;;;;8.95;7.90;;;2.90;99.90;;;;;;5011849;28;20034;-70
2021/03/16 02:10:45;;;;;;;9.98;7.88;;;2.90;99.90;;;;;;5011763;28;20030;-70
2021/03/16 02:13:16;;;;;;;16.48;14.27;;;2.90;99.90;;;;;;5011958;28;20390;-70
2021/03/16 02:15:44;;;;;;;8.90;6.15;;;2.90;99.90;;;;;;5011850;28;20041;-71
2021/03/16 02:18:20;;;;;;;8.00;5.00;;;2.90;99.90;;;;;;5010672;28;20049;-70
2021/03/16 02:20:58;;;;;;;9.55;5.53;;;2.90;99.90;;;;;;5011550;28;20531;-71
2021/03/16 02:23:34;;;;;;;9.90;5.68;;;2.90;99.90;;;;;;5010399;28;20084;-71
2021/03/16 02:26:55;;;;;;;8.63;6.75;;;2.90;99.90;;;;;;5011865;28;20097;-71
2021/03/16 02:29:35;;;;;;;67.18;63.28;;;2.90;99.90;;;;;;4993429;28;20030;-70
2021/03/16 02:32:23;;;;;;;37.60;35.20;;;2.90;99.90;;;;;;5013302;28;20025;-70
2021/03/16 02:34:52;;;;;;;18.52;16.80;;;2.90;99.90;;;;;;5015707;28;20026;-71
2021/03/16 02:37:19;;;;;;;28.02;25.60;;;2.90;99.90;;;;;;5000907;28;20026;-70
2021/03/16 02:39:47;;;;;;;21.73;19.75;;;2.80;99.90;;;;;;5024977;28;20444;-70
2021/03/16 02:42:15;;;;;;;11.38;7.30;;;2.80;99.90;;;;;;5031010;28;20542;-70
2021/03/16 02:44:41;;;;;;;12.93;11.57;;;2.80;99.90;;;;;;5030047;28;20027;-70
2021/03/16 02:47:07;;;;;;;72.60;68.43;;;2.90;99.90;;;;;;5031372;28;20037;-70
2021/03/16 02:49:36;;;;;;;38.20;35.80;;;2.90;99.90;;;;;;5031212;28;20542;-70
2021/03/16 02:52:03;;;;;;;38.15;35.55;;;2.90;99.90;;;;;;5032832;28;20026;-70
2021/03/16 02:54:30;;;;;;;27.17;25.33;;;2.80;99.90;;;;;;5034916;28;20506;-70
2021/03/16 02:56:57;;;;;;;44.38;41.45;;;2.80;99.90;;;;;;5034944;28;20476;-70
2021/03/16 02:59:24;;;;;;;43.40;40.67;;;2.80;99.90;;;;;;5034786;28;20392;-70
2021/03/16 03:01:51;;;;;;;68.15;64.22;;;2.80;99.90;;;;;;5023181;28;20026;-70
2021/03/16 03:04:18;;;;;;;96.78;91.18;;;2.90;99.90;;;;;;5014965;28;20124;-71
2021/03/16 03:06:44;;;;;;;50.80;47.42;;;2.70;99.90;;;;;;5015010;28;20160;-71
2021/03/16 03:09:11;;;;;;;31.50;29.10;;;2.70;99.90;;;;;;5006336;28;20084;-70
2021/03/16 03:11:37;;;;;;;20.75;19.05;;;2.70;99.90;;;;;;5033217;28;20025;-71
2021/03/16 03:14:04;;;;;;;70.40;66.43;;;2.70;99.90;;;;;;5034571;28;20406;-71
2021/03/16 03:16:30;;;;;;;48.80;45.55;;;2.80;99.90;;;;;;5034553;28;20120;-71
2021/03/16 03:18:57;;;;;;;52.42;49.08;;;2.60;99.90;;;;;;5029310;28;20137;-71
2021/03/16 03:21:35;;;;;;;73.65;69.55;;;2.60;99.90;;;;;;5014608;28;20058;-70
2021/03/16 03:24:05;;;;;;;17.10;15.63;;;2.70;99.90;;;;;;5027793;28;20026;-71
2021/03/16 03:26:41;;;;;;;24.75;23.13;;;2.70;99.90;;;;;;5001163;28;20023;-72
2021/03/16 03:29:09;;;;;;;70.28;65.88;;;2.60;99.90;;;;;;5033091;28;20030;-71
2021/03/16 03:31:36;;;;;;;76.53;72.05;;;2.60;99.90;;;;;;5031802;28;20021;-71
2021/03/16 03:34:02;;;;;;;40.05;37.45;;;2.60;99.90;;;;;;5014769;28;20088;-71
2021/03/16 03:36:28;;;;;;;81.82;77.22;;;2.60;99.90;;;;;;5014685;28;20541;-71
2021/03/16 03:38:54;;;;;;;40.00;37.78;;;2.60;99.90;;;;;;5014429;28;20098;-71
2021/03/16 03:41:24;;;;;;;17.25;15.85;;;2.60;99.90;;;;;;5012878;28;20024;-71
2021/03/16 03:43:50;;;;;;;76.80;72.50;;;2.80;99.90;;;;;;5014300;28;20030;-71
2021/03/16 03:46:16;;;;;;;72.60;68.78;;;2.60;99.90;;;;;;5012983;28;20053;-71
2021/03/16 03:48:44;;;;;;;70.63;66.60;;;2.70;99.90;;;;;;5014218;28;20025;-71
2021/03/16 03:51:09;;;;;;;58.63;55.35;;;2.70;99.90;;;;;;5013910;28;20022;-71
2021/03/16 03:53:36;;;;;;;38.10;35.85;;;2.70;99.90;;;;;;5014204;28;20080;-71
2021/03/16 03:56:02;;;;;;;69.60;65.60;;;2.70;99.90;;;;;;5014129;28;20104;-71
2021/03/16 03:58:28;;;;;;;53.05;49.88;;;2.70;99.90;;;;;;5014021;28;20069;-71
2021/03/16 04:00:54;;;;;;;27.33;25.30;;;2.70;99.90;;;;;;5013797;28;20030;-71
2021/03/16 04:03:20;;;;;;;26.67;24.58;;;2.70;99.90;;;;;;5004056;28;20096;-71
2021/03/16 04:05:50;;;;;;;20.67;19.00;;;2.70;99.90;;;;;;5010483;28;20096;-70
2021/03/16 04:08:17;;;;;;;17.00;15.65;;;2.70;99.90;;;;;;5012574;28;20480;-70
2021/03/16 04:10:42;;;;;;;11.23;10.32;;;2.70;99.90;;;;;;5013642;28;20026;-70
2021/03/16 04:13:08;;;;;;;30.42;28.23;;;2.80;99.90;;;;;;5013622;28;20036;-70
2021/03/16 04:15:34;;;;;;;35.80;33.42;;;2.70;99.90;;;;;;5013680;28;20081;-70
2021/03/16 04:18:01;;;;;;;13.32;11.95;;;2.70;99.90;;;;;;5013606;28;20455;-71
2021/03/16 04:20:27;;;;;;;23.73;22.02;;;2.70;99.90;;;;;;5013489;28;20058;-71
2021/03/16 04:22:53;;;;;;;40.33;37.28;;;2.70;99.90;;;;;;5012007;28;20022;-71
2021/03/16 04:25:18;;;;;;;23.60;21.77;;;2.70;99.90;;;;;;5013554;28;20029;-70
2021/03/16 04:27:44;;;;;;;39.97;37.28;;;2.70;99.90;;;;;;5012228;28;20033;-71
2021/03/16 04:30:10;;;;;;;16.58;14.00;;;2.70;99.90;;;;;;5030766;28;20541;-70
2021/03/16 04:32:36;;;;;;;34.70;32.25;;;2.70;99.90;;;;;;5022045;28;20053;-71
2021/03/16 04:35:02;;;;;;;48.58;45.55;;;2.80;99.90;;;;;;5013319;28;20057;-71
2021/03/16 04:37:27;;;;;;;71.80;67.35;;;2.70;99.90;;;;;;5013268;28;20034;-71
2021/03/16 04:39:53;;;;;;;54.08;50.80;;;2.70;99.90;;;;;;5013210;28;20022;-71
2021/03/16 04:42:19;;;;;;;39.40;36.70;;;2.70;99.90;;;;;;5012911;28;20038;-70
2021/03/16 04:44:44;;;;;;;23.02;20.98;;;2.70;99.90;;;;;;5011974;28;20112;-70
2021/03/16 04:47:10;;;;;;;27.83;25.73;;;2.70;99.90;;;;;;5013067;28;20426;-71
2021/03/16 04:49:35;;;;;;;28.60;26.52;;;2.70;99.90;;;;;;5013525;28;20022;-71
2021/03/16 04:52:01;;;;;;;62.67;58.92;;;2.70;99.90;;;;;;5022962;28;20032;-70
2021/03/16 04:54:27;;;;;;;43.60;40.30;;;2.60;99.90;;;;;;5019475;28;20048;-71
2021/03/16 04:56:53;;;;;;;54.30;51.22;;;2.60;99.90;;;;;;5023037;28;20030;-70
2021/03/16 04:59:18;;;;;;;33.92;31.63;;;2.80;99.90;;;;;;5016383;28;20022;-72
2021/03/16 05:01:44;;;;;;;25.08;22.95;;;2.70;99.90;;;;;;5021407;28;20022;-70
2021/03/16 05:04:09;;;;;;;31.08;29.15;;;2.70;99.90;;;;;;5026035;28;20562;-70
2021/03/16 05:06:35;;;;;;;35.55;33.22;;;2.70;99.90;;;;;;5003327;28;20420;-69
2021/03/16 05:09:00;;;;;;;34.22;31.85;;;2.80;99.90;;;;;;5022680;28;20438;-70
2021/03/16 05:11:26;;;;;;;38.50;36.13;;;2.70;99.90;;;;;;5020688;28;20021;-70
2021/03/16 05:13:52;;;;;;;26.48;24.38;;;2.70;99.90;;;;;;5018675;28;20204;-71
2021/03/16 05:16:17;;;;;;;11.25;9.07;;;2.70;99.90;;;;;;5023107;28;20037;-70
2021/03/16 05:18:43;;;;;;;45.97;43.15;;;2.80;99.90;;;;;;5028597;28;20029;-69
2021/03/16 05:21:08;;;;;;;16.13;14.82;;;2.70;99.90;;;;;;5032724;28;20502;-70
2021/03/16 05:23:34;;;;;;;45.67;43.00;;;2.70;99.90;;;;;;5032124;28;20521;-69
2021/03/16 05:25:59;;;;;;;55.08;51.92;;;2.70;99.90;;;;;;5022429;28;20573;-68
2021/03/16 05:28:25;;;;;;;55.67;52.63;;;2.70;99.90;;;;;;5015455;28;20029;-71
2021/03/16 05:30:51;;;;;;;56.22;52.70;;;2.60;99.90;;;;;;5022254;28;20034;-69
2021/03/16 05:33:18;;;;;;;40.53;37.83;;;2.60;99.90;;;;;;5028885;28;20025;-68
2021/03/16 05:35:44;;;;;;;32.33;29.90;;;2.60;99.90;;;;;;5032079;28;20046;-69
2021/03/16 05:38:10;;;;;;;23.45;21.33;;;2.60;99.90;;;;;;5018914;28;20068;-69
2021/03/16 05:40:36;;;;;;;35.15;32.70;;;2.60;99.90;;;;;;5022163;28;20117;-71
2021/03/16 05:43:02;;;;;;;49.33;46.33;;;2.60;99.90;;;;;;5025157;28;20464;-70
2021/03/16 05:45:28;;;;;;;22.98;21.40;;;2.60;99.90;;;;;;5001152;28;20369;-70
2021/03/16 05:47:55;;;;;;;33.83;31.63;;;2.60;99.90;;;;;;5022315;28;20057;-70
2021/03/16 05:50:21;;;;;;;42.05;39.53;;;2.60;99.90;;;;;;5022129;28;20094;-70
2021/03/16 05:52:47;;;;;;;20.02;18.40;;;2.60;99.90;;;;;;5018521;28;20037;-70
2021/03/16 05:55:13;;;;;;;29.75;27.80;;;2.60;99.90;;;;;;5021917;28;20034;-69
2021/03/16 05:57:39;;;;;;;47.42;44.75;;;2.60;99.90;;;;;;4997340;28;20030;-70
2021/03/16 06:00:07;;;;;;;31.75;29.75;;;2.60;99.90;;;;;;5021657;28;20048;-70
2021/03/16 06:02:36;;;;;;;25.75;24.10;;;2.60;99.90;;;;;;5014983;28;20392;-70
2021/03/16 06:05:02;;;;;;;34.40;32.20;;;2.60;99.90;;;;;;5022334;28;20494;-70
2021/03/16 06:07:28;;;;;;;12.32;11.13;;;2.60;99.90;;;;;;5010957;28;20022;-70
2021/03/16 06:09:53;;;;;;;31.88;30.00;;;2.80;99.90;;;;;;5012956;28;20040;-70
2021/03/16 06:12:29;;;;;;;56.08;53.03;;;2.60;99.90;;;;;;5018331;28;20025;-70
2021/03/16 06:14:55;;;;;;;36.25;33.78;;;2.60;99.90;;;;;;5020177;28;20033;-70
2021/03/16 06:17:21;;;;;;;40.75;37.95;;;2.60;99.90;;;;;;5025167;28;20037;-70
2021/03/16 06:19:46;;;;;;;39.90;37.42;;;2.60;99.90;;;;;;5023500;28;20373;-70
2021/03/16 06:22:17;;;;;;;62.97;59.47;;;2.60;99.90;;;;;;5017938;28;20033;-70
2021/03/16 06:24:47;;;;;;;56.35;52.95;;;2.60;99.90;;;;;;5019506;28;20037;-70
2021/03/16 06:27:26;;;;;;;26.73;24.98;;;2.60;99.90;;;;;;5022075;28;20028;-71
2021/03/16 06:29:52;;;;;;;56.03;52.88;;;2.60;99.90;;;;;;5022456;28;20018;-70
2021/03/16 06:32:18;;;;;;;37.47;34.78;;;2.60;99.90;;;;;;5027333;28;20028;-70
2021/03/16 06:34:44;;;;;;;36.33;33.95;;;2.60;99.90;;;;;;5028870;28;20021;-70
2021/03/16 06:37:10;;;;;;;43.03;40.38;;;2.50;99.90;;;;;;5023780;28;20053;-71
2021/03/16 06:39:43;;;;;;;37.40;34.65;;;2.60;99.90;;;;;;5021883;28;20113;-70
2021/03/16 06:42:21;;;;;;;44.90;42.13;;;2.60;99.90;;;;;;5026646;28;20361;-71
2021/03/16 06:44:57;;;;;;;48.47;45.58;;;2.60;99.90;;;;;;5029176;28;20026;-72
2021/03/16 06:47:23;;;;;;;26.30;24.25;;;2.70;99.90;;;;;;5028043;28;20074;-70
2021/03/16 06:49:48;;;;;;;26.23;24.42;;;2.70;99.90;;;;;;5021778;28;20025;-70
2021/03/16 06:52:14;;;;;;;28.45;26.27;;;2.80;99.90;;;;;;5023706;28;20080;-70
2021/03/16 06:54:39;;;;;;;21.60;19.83;;;2.80;99.90;;;;;;5028583;28;20022;-70
2021/03/16 06:57:06;;;;;;;28.25;26.52;;;2.90;99.90;;;;;;5026406;28;20032;-72
2021/03/16 06:59:32;;;;;;;49.17;45.95;;;2.90;99.90;;;;;;5029079;28;20432;-71
2021/03/16 07:01:58;;;;;;;38.78;36.42;;;2.90;99.90;;;;;;5015043;28;20030;-70
2021/03/16 07:04:26;;;;;;;41.45;38.75;;;3.00;99.90;;;;;;5006068;28;20048;-70
2021/03/16 07:06:52;;;;;;;14.82;13.38;;;3.00;99.90;;;;;;5023726;28;20022;-70
2021/03/16 07:09:19;;;;;;;45.78;42.97;;;3.00;99.90;;;;;;5031315;28;20167;-70
2021/03/16 07:11:48;;;;;;;22.38;20.77;;;3.20;99.90;;;;;;5023399;28;20085;-70
2021/03/16 07:14:15;;;;;;;13.20;11.82;;;3.20;99.90;;;;;;5028356;28;20476;-70
2021/03/16 07:16:42;;;;;;;28.08;25.95;;;3.10;99.90;;;;;;5026635;28;20029;-70
2021/03/16 07:19:08;;;;;;;14.48;13.15;;;3.10;99.90;;;;;;5015989;28;20101;-71
2021/03/16 07:21:39;;;;;;;16.65;9.18;;;3.40;99.90;;;;;;5014631;28;20125;-70
2021/03/16 07:24:09;;;;;;;10.02;5.05;;;3.30;99.90;;;;;;5014459;28;20384;-70
2021/03/16 07:26:36;;;;;;;12.68;5.07;;;3.40;99.90;;;;;;5014496;28;20040;-71
2021/03/16 07:29:06;;;;;;;10.95;4.57;;;3.30;99.90;;;;;;5020336;28;20036;-70
2021/03/16 07:31:36;;;;;;;7.45;5.35;;;3.40;99.90;;;;;;5032159;28;20088;-70
2021/03/16 07:34:05;;;;;;;9.90;4.82;;;3.40;99.90;;;;;;5014742;28;20113;-70
2021/03/16 07:36:31;;;;;;;20.45;18.38;;;3.50;99.90;;;;;;5014417;28;20030;-70
2021/03/16 07:38:58;;;;;;;20.85;19.17;;;3.50;99.90;;;;;;5020652;28;20474;-70
2021/03/16 07:41:24;;;;;;;10.02;5.43;;;3.50;99.90;;;;;;5030786;28;20484;-70
2021/03/16 07:44:00;;;;;;;8.48;5.18;;;3.50;99.90;;;;;;5014150;28;20033;-70
2021/03/16 07:46:38;;;;;;;;;;;3.50;99.90;;;;;;5014546;28;20038;-70
2021/03/16 07:49:03;;;;;;;9.98;5.30;;;3.70;99.90;;;;;;5014129;28;19913;-70
2021/03/16 07:51:33;;;;;;;11.40;4.93;;;3.50;99.90;;;;;;5013521;28;20404;-70
2021/03/16 07:54:05;;;;;;;7.55;4.35;;;3.60;99.90;;;;;;5013958;28;20061;-70
2021/03/16 07:56:35;;;;;;;6.05;4.25;;;3.60;99.90;;;;;;5001437;28;20041;-70
2021/03/16 07:59:02;;;;;;;6.97;3.67;;;3.80;99.90;;;;;;5012519;28;20030;-70
2021/03/16 08:01:27;;;;;;;8.05;4.55;;;3.90;99.90;;;;;;5004618;28;20037;-70
2021/03/16 08:04:10;;;;;;;9.60;4.75;;;3.90;99.90;;;;;;5021826;28;20029;-70
2021/03/16 08:06:39;;;;;;;6.90;3.65;;;3.90;99.90;;;;;;5032104;28;20021;-71
2021/03/16 08:09:05;;;;;;;7.75;3.15;;;3.90;99.90;;;;;;5033003;28;20026;-70
2021/03/16 08:11:39;;;;;;;8.30;3.67;;;3.80;99.90;;;;;;5022916;28;20444;-70
2021/03/16 08:14:05;;;;;;;8.55;3.17;;;3.90;99.90;;;;;;5013615;28;20026;-70
2021/03/16 08:16:44;;;;;;;5.55;3.53;;;3.90;99.90;;;;;;5013561;28;20022;-70
2021/03/16 08:19:34;;;;;;;6.55;3.53;;;3.90;99.90;;;;;;5013517;28;20511;-74
2021/03/16 08:22:01;;;;;;;7.63;3.30;;;4.00;99.90;;;;;;5013244;28;20030;-71
2021/03/16 08:24:40;;;;;;;6.07;2.70;;;4.00;99.90;;;;;;5003602;28;20054;-70
2021/03/16 08:27:15;;;;;;;6.18;3.10;;;3.90;99.90;;;;;;5012288;28;20026;-70
2021/03/16 08:29:49;;;;;;;4.82;2.55;;;3.90;99.90;;;;;;5013343;28;20080;-70
2021/03/16 08:32:17;;;;;;;4.28;2.60;;;4.00;99.90;;;;;;5017424;28;20053;-70
2021/03/16 08:34:44;;;;;;;6.22;4.78;;;3.90;99.90;;;;;;5001333;28;20058;-70
2021/03/16 08:37:33;;;;;;;5.10;4.38;;;4.10;99.90;;;;;;5032996;28;20049;-70
2021/03/16 08:40:00;;;;;;;5.97;4.75;;;4.10;99.90;;;;;;5013477;28;20030;-70
2021/03/16 08:42:28;;;;;;;6.03;3.75;;;4.00;99.90;;;;;;5001318;28;20033;-70
2021/03/16 08:44:54;;;;;;;5.90;3.38;;;3.90;99.90;;;;;;5011686;28;20018;-70
2021/03/16 08:47:22;;;;;;;8.77;4.68;;;4.00;99.90;;;;;;5011655;28;20163;-70
2021/03/16 08:49:49;;;;;;;6.63;3.97;;;4.00;99.90;;;;;;5011842;28;20034;-69
2021/03/16 08:52:24;;;;;;;8.02;5.07;;;4.10;99.90;;;;;;5012573;28;20065;-69
2021/03/16 08:54:52;;;;;;;4.43;2.60;;;4.10;99.90;;;;;;5012771;28;20519;-69
2021/03/16 08:57:22;;;;;;;6.72;3.22;;;4.30;99.90;;;;;;5012893;28;20022;-70
2021/03/16 08:59:55;;;;;;;5.32;2.42;;;4.20;99.90;;;;;;5012634;28;20025;-69
2021/03/16 09:02:29;;;;;;;4.13;2.28;;;4.30;99.90;;;;;;5012323;28;20022;-70
2021/03/16 09:04:56;;;;;;;6.65;3.00;;;4.40;99.90;;;;;;5012782;28;20021;-69
2021/03/16 09:07:30;;;;;;;3.53;2.83;;;4.50;99.90;;;;;;5012414;28;20080;-69
2021/03/16 09:10:17;;;;;;;4.55;2.42;;;4.50;99.90;;;;;;5023162;28;20116;-70
2021/03/16 09:12:45;;;;;;;4.60;2.60;;;4.40;99.90;;;;;;5032124;28;20104;-70
2021/03/16 09:15:17;;;;;;;6.05;3.25;;;4.60;99.90;;;;;;5032191;28;20382;-70
2021/03/16 09:17:45;;;;;;;3.75;2.55;;;4.50;99.90;;;;;;5032194;28;20025;-70
2021/03/16 09:20:19;;;;;;;6.00;3.25;;;4.40;99.90;;;;;;5030661;28;20120;-70
2021/03/16 09:22:51;;;;;;;3.45;2.30;;;4.50;99.90;;;;;;5031814;28;20025;-70
2021/03/16 09:25:17;;;;;;;5.68;2.50;;;4.70;99.90;;;;;;5015574;28;20581;-70
2021/03/16 09:27:44;;;;;;;5.97;2.70;;;4.60;99.90;;;;;;5012453;28;20124;-70
2021/03/16 09:30:11;;;;;;;8.30;7.57;;;4.70;99.90;;;;;;5002935;28;20065;-69
2021/03/16 09:32:41;;;;;;;3.33;2.63;;;4.70;99.90;;;;;;5020617;28;20040;-69
2021/03/16 09:35:08;;;;;;;3.65;2.50;;;4.60;99.90;;;;;;5012080;28;20041;-70
2021/03/16 09:37:50;;;;;;;5.13;2.83;;;4.60;99.90;;;;;;5012058;28;20065;-70
2021/03/16 09:40:18;;;;;;;4.80;2.60;;;4.90;99.90;;;;;;5012082;28;20018;-69
2021/03/16 09:42:45;;;;;;;7.03;2.75;;;4.90;99.90;;;;;;5011723;28;20034;-69
2021/03/16 09:45:25;;;;;;;3.97;2.20;;;5.00;99.90;;;;;;5019559;28;20017;-70
2021/03/16 09:47:52;;;;;;;3.92;2.22;;;5.10;99.90;;;;;;5031649;28;20036;-70
2021/03/16 09:50:31;;;;;;;4.32;2.97;;;5.00;99.90;;;;;;5020952;28;20018;-70
2021/03/16 09:53:02;;;;;;;5.57;2.70;;;5.00;99.90;;;;;;5011725;28;20042;-70
2021/03/16 09:55:28;;;;;;;3.88;2.15;;;5.10;99.90;;;;;;5011719;28;20033;-70
2021/03/16 09:57:54;;;;;;;5.13;2.60;;;5.00;99.90;;;;;;5003349;28;20032;-70
2021/03/16 10:00:23;;;;;;;7.55;2.72;;;5.00;99.90;;;;;;5018524;28;20026;-70
2021/03/16 10:02:49;;;;;;;6.00;2.78;;;5.10;99.90;;;;;;5011453;28;20080;-70
2021/03/16 10:05:16;;;;;;;4.50;2.25;;;5.10;99.90;;;;;;5011811;28;20031;-70
2021/03/16 10:07:48;;;;;;;4.95;2.45;;;5.20;99.90;;;;;;5011580;28;20021;-70
2021/03/16 10:10:19;;;;;;;6.03;3.08;;;5.20;99.90;;;;;;5011687;28;20041;-69
2021/03/16 10:12:54;;;;;;;8.07;2.83;;;5.10;99.90;;;;;;5011427;28;20389;-70
2021/03/16 10:15:23;;;;;;;4.10;3.22;;;5.10;99.90;;;;;;4999904;28;20038;-70
2021/03/16 10:17:49;;;;;;;5.35;2.78;;;4.90;99.90;;;;;;5031341;28;20622;-70
2021/03/16 10:20:20;;;;;;;5.15;2.20;;;5.00;99.90;;;;;;5031107;28;20056;-70
2021/03/16 10:22:52;;;;;;;5.13;2.67;;;5.00;99.90;;;;;;5031148;28;20025;-70
2021/03/16 10:25:18;;;;;;;4.03;3.08;;;5.00;99.90;;;;;;5026108;28;20049;-70
2021/03/16 10:27:54;;;;;;;4.95;2.53;;;5.00;99.90;;;;;;5022263;28;20070;-70
2021/03/16 10:30:32;;;;;;;7.57;2.70;;;5.00;99.90;;;;;;5031233;28;20033;-70
2021/03/16 10:32:58;;;;;;;4.78;2.65;;;5.00;99.90;;;;;;5017385;28;20026;-69
2021/03/16 10:35:23;;;;;;;4.32;2.28;;;5.00;99.90;;;;;;5011449;28;20420;-70
2021/03/16 10:37:49;;;;;;;5.03;2.22;;;5.00;99.90;;;;;;5011456;28;20064;-70
2021/03/16 10:40:15;;;;;;;6.93;3.20;;;5.10;99.90;;;;;;5011575;28;20034;-70
2021/03/16 10:42:40;;;;;;;7.32;2.92;;;5.20;99.90;;;;;;5010966;28;20057;-70
2021/03/16 10:45:06;;;;;;;4.50;2.60;;;5.30;99.90;;;;;;5016718;28;20124;-70
2021/03/16 10:47:32;;;;;;;9.75;4.30;;;5.50;99.90;;;;;;5030916;28;20060;-70
2021/03/16 10:49:57;;;;;;;6.47;2.72;;;5.60;99.90;;;;;;5031009;28;20033;-70
2021/03/16 10:52:23;;;;;;;5.28;3.28;;;5.90;99.90;;;;;;5031222;28;20029;-69
2021/03/16 10:54:48;;;;;;;4.90;2.30;;;6.10;99.90;;;;;;5031004;28;20075;-69
2021/03/16 10:57:15;;;;;;;5.07;4.35;;;6.10;99.90;;;;;;5031045;28;20029;-69
2021/03/16 10:59:40;;;;;;;5.18;2.70;;;6.30;99.90;;;;;;5030814;28;20056;-69
2021/03/16 11:02:07;;;;;;;5.43;2.60;;;6.10;99.90;;;;;;5030652;28;20053;-70
2021/03/16 11:04:33;;;;;;;3.28;2.03;;;6.10;99.90;;;;;;5030815;28;20025;-69
2021/03/16 11:06:59;;;;;;;4.72;2.00;;;6.30;99.90;;;;;;5030873;28;20045;-69
2021/03/16 11:09:24;;;;;;;3.45;2.38;;;6.30;99.90;;;;;;5030647;28;20068;-69
2021/03/16 11:11:50;;;;;;;4.32;1.92;;;6.30;99.90;;;;;;5030705;28;20025;-69
2021/03/16 11:14:15;;;;;;;3.47;2.10;;;6.30;99.90;;;;;;5034585;28;20044;-69
2021/03/16 11:16:41;;;;;;;8.32;7.72;;;6.10;99.90;;;;;;5034885;28;20033;-69
2021/03/16 11:19:06;;;;;;;4.80;2.47;;;6.00;99.90;;;;;;5033268;28;20083;-69
2021/03/16 11:21:32;;;;;;;4.32;2.20;;;5.90;99.90;;;;;;5034279;28;20036;-69
2021/03/16 11:23:59;;;;;;;4.22;2.10;;;5.90;99.90;;;;;;5034222;28;20069;-70
2021/03/16 11:26:25;;;;;;;4.57;3.28;;;6.00;99.90;;;;;;5021154;28;20076;-69
2021/03/16 11:28:51;;;;;;;8.63;4.00;;;5.80;99.90;;;;;;5014161;28;20029;-70
2021/03/16 11:31:17;;;;;;;7.20;3.08;;;5.60;99.90;;;;;;5018430;28;20014;-70
2021/03/16 11:33:42;;;;;;;4.75;2.33;;;5.60;99.90;;;;;;5001050;28;20101;-69
2021/03/16 11:36:08;;;;;;;4.95;2.25;;;5.70;99.90;;;;;;5014388;28;20026;-70
2021/03/16 11:38:34;;;;;;;4.82;2.40;;;5.60;99.90;;;;;;5012851;28;20506;-69
2021/03/16 11:41:00;;;;;;;5.03;2.55;;;5.60;99.90;;;;;;5013913;28;20037;-69
2021/03/16 11:43:25;;;;;;;4.40;2.80;;;5.70;99.90;;;;;;5012831;28;20058;-69
2021/03/16 11:45:51;;;;;;;6.60;2.80;;;5.70;99.90;;;;;;5013809;28;20050;-69
2021/03/16 11:48:17;;;;;;;4.88;2.80;;;5.80;99.90;;;;;;5014025;28;20209;-70
2021/03/16 11:50:42;;;;;;;6.35;2.47;;;5.80;99.90;;;;;;5013799;28;20033;-69
2021/03/16 11:53:08;;;;;;;9.60;3.05;;;5.90;99.90;;;;;;5013835;28;20555;-69
2021/03/16 11:55:34;;;;;;;7.93;3.08;;;6.00;99.90;;;;;;5012666;28;20022;-69
2021/03/16 11:58:00;;;;;;;5.60;2.83;;;6.00;99.90;;;;;;5013804;28;20022;-69
2021/03/16 12:00:26;;;;;;;6.72;3.10;;;5.90;99.90;;;;;;5013676;28;20033;-69
2021/03/16 12:02:52;;;;;;;14.73;9.20;;;5.90;99.90;;;;;;5012047;28;20034;-69
2021/03/16 12:05:18;;;;;;;15.63;7.70;;;5.80;99.90;;;;;;5013798;28;20025;-70
2021/03/16 12:07:43;;;;;;;8.20;3.15;;;5.50;99.90;;;;;;5013690;28;20495;-69
2021/03/16 12:10:10;;;;;;;11.15;4.85;;;5.60;99.90;;;;;;5013564;28;20045;-69
2021/03/16 12:12:36;;;;;;;11.45;6.88;;;5.40;99.90;;;;;;5013420;28;20029;-69
2021/03/16 12:15:07;;;;;;;6.90;3.65;;;5.30;99.90;;;;;;5013227;28;20032;-69
2021/03/16 12:17:33;;;;;;;6.32;3.65;;;5.40;99.90;;;;;;5013416;28;20028;-70
2021/03/16 12:19:59;;;;;;;6.82;2.83;;;5.50;99.90;;;;;;5012347;28;20022;-70
2021/03/16 12:22:24;;;;;;;8.35;3.33;;;5.40;99.90;;;;;;5013122;28;20080;-69
2021/03/16 12:24:50;;;;;;;11.00;3.70;;;5.40;99.90;;;;;;5013085;28;20546;-69
2021/03/16 12:27:15;;;;;;;8.30;3.28;;;5.30;99.90;;;;;;5013324;28;20026;-69
2021/03/16 12:29:41;;;;;;;7.95;2.97;;;5.30;99.90;;;;;;5013042;28;20026;-70
2021/03/16 12:32:08;;;;;;;6.32;2.75;;;5.30;99.90;;;;;;5017288;28;20028;-69
2021/03/16 12:34:34;;;;;;;6.05;3.28;;;5.30;99.90;;;;;;5013278;28;20021;-69
2021/03/16 12:36:59;;;;;;;7.18;3.10;;;5.30;99.90;;;;;;5013180;28;20109;-69
2021/03/16 12:39:25;;;;;;;6.10;2.67;;;5.30;99.90;;;;;;5013101;28;20100;-70
2021/03/16 12:41:51;;;;;;;6.53;3.08;;;5.30;99.90;;;;;;5012972;28;20034;-72
2021/03/16 12:44:16;;;;;;;4.57;2.83;;;5.40;99.90;;;;;;4999947;28;20105;-73
2021/03/16 12:46:42;;;;;;;6.30;3.08;;;5.60;99.90;;;;;;5032740;28;20372;-70
2021/03/16 12:49:08;;;;;;;6.72;2.90;;;5.70;99.90;;;;;;5032681;28;20021;-70